createdAt,value
2018-03-21T00:00:59.806Z,1012.83
2018-03-21T00:01:59.814Z,1012.84
2018-03-21T00:02:59.826Z,1012.84
2018-03-21T00:03:59.835Z,1012.86
2018-03-21T00:04:59.845Z,1012.86
2018-03-21T00:05:59.855Z,1012.88
2018-03-21T00:06:59.864Z,1012.89
2018-03-21T00:07:59.875Z,1012.91
2018-03-21T00:08:59.884Z,1012.92
2018-03-21T00:09:59.894Z,1012.95
2018-03-21T00:10:59.904Z,1012.95
2018-03-21T00:11:59.914Z,1012.97
2018-03-21T00:12:59.923Z,1012.99
2018-03-21T00:13:59.934Z,1012.98
2018-03-21T00:14:59.941Z,1013
2018-03-21T00:15:59.955Z,1012.97
2018-03-21T00:16:59.963Z,1013.02
2018-03-21T00:17:59.972Z,1013.02
2018-03-21T00:18:59.981Z,1013.01
2018-03-21T00:19:59.990Z,1013
2018-03-21T00:21:00.000Z,1013
2018-03-21T00:22:00.012Z,1013.03
2018-03-21T00:23:00.022Z,1013.03
2018-03-21T00:24:00.030Z,1013.01
2018-03-21T00:25:00.091Z,1013.03
2018-03-21T00:26:00.050Z,1013.01
2018-03-21T00:27:00.060Z,1013.03
2018-03-21T00:28:00.074Z,1013
2018-03-21T00:29:00.082Z,1013.05
2018-03-21T00:30:00.144Z,1013.05
2018-03-21T00:31:00.099Z,1013.06
2018-03-21T00:32:00.111Z,1013.06
2018-03-21T00:33:00.121Z,1013.04
2018-03-21T00:34:00.137Z,1013.09
2018-03-21T00:35:00.189Z,1013.08
2018-03-21T00:36:00.150Z,1013.11
2018-03-21T00:37:00.159Z,1013.11
2018-03-21T00:38:00.168Z,1013.12
2018-03-21T00:39:00.178Z,1013.14
2018-03-21T00:40:00.189Z,1013.14
2018-03-21T00:41:00.199Z,1013.12
2018-03-21T00:42:00.207Z,1013.13
2018-03-21T00:43:00.223Z,1013.12
2018-03-21T00:44:00.227Z,1013.13
2018-03-21T00:45:00.238Z,1013.13
2018-03-21T00:46:00.254Z,1013.08
2018-03-21T00:47:00.256Z,1013.08
2018-03-21T00:48:00.267Z,1013.1
2018-03-21T00:49:00.277Z,1013.07
2018-03-21T00:50:00.285Z,1013.12
2018-03-21T00:51:00.297Z,1013.11
2018-03-21T00:52:00.308Z,1013.07
2018-03-21T00:53:00.314Z,1013.12
2018-03-21T00:54:00.334Z,1013.1
2018-03-21T00:55:00.337Z,1013.15
2018-03-21T00:56:00.344Z,1013.13
2018-03-21T00:57:00.357Z,1013.18
2018-03-21T00:58:00.365Z,1013.19
2018-03-21T00:59:00.374Z,1013.19
2018-03-21T01:00:00.387Z,1013.22
2018-03-21T01:01:00.401Z,1013.22
2018-03-21T01:02:00.404Z,1013.27
2018-03-21T01:03:00.413Z,1013.27
2018-03-21T01:04:00.423Z,1013.27
2018-03-21T01:05:00.433Z,1013.29
2018-03-21T01:06:00.449Z,1013.34
2018-03-21T01:07:00.453Z,1013.3
2018-03-21T01:08:00.467Z,1013.36
2018-03-21T01:09:00.477Z,1013.37
2018-03-21T01:10:00.483Z,1013.37
2018-03-21T01:11:00.521Z,1013.38
2018-03-21T01:12:00.501Z,1013.36
2018-03-21T01:13:00.511Z,1013.37
2018-03-21T01:14:00.520Z,1013.34
2018-03-21T01:15:00.530Z,1013.35
2018-03-21T01:16:00.547Z,1013.34
2018-03-21T01:17:00.551Z,1013.36
2018-03-21T01:18:00.559Z,1013.37
2018-03-21T01:19:00.569Z,1013.38
2018-03-21T01:20:00.578Z,1013.36
2018-03-21T01:21:00.588Z,1013.37
2018-03-21T01:22:00.598Z,1013.38
2018-03-21T01:23:00.607Z,1013.35
2018-03-21T01:24:00.627Z,1013.36
2018-03-21T01:25:00.632Z,1013.39
2018-03-21T01:26:00.639Z,1013.42
2018-03-21T01:27:00.649Z,1013.38
2018-03-21T01:28:00.656Z,1013.42
2018-03-21T01:29:00.677Z,1013.44
2018-03-21T01:30:00.678Z,1013.4
2018-03-21T01:31:00.686Z,1013.43
2018-03-21T01:32:00.706Z,1013.4
2018-03-21T01:33:00.706Z,1013.4
2018-03-21T01:34:00.715Z,1013.41
2018-03-21T01:35:00.725Z,1013.43
2018-03-21T01:36:00.740Z,1013.39
2018-03-21T01:37:00.744Z,1013.43
2018-03-21T01:38:00.758Z,1013.44
2018-03-21T01:39:00.766Z,1013.43
2018-03-21T01:40:00.776Z,1013.4
2018-03-21T01:41:00.783Z,1013.42
2018-03-21T01:42:00.792Z,1013.48
2018-03-21T01:43:00.802Z,1013.46
2018-03-21T01:44:00.820Z,1013.43
2018-03-21T01:45:00.823Z,1013.48
2018-03-21T01:46:00.838Z,1013.46
2018-03-21T01:47:00.859Z,1013.46
2018-03-21T01:48:00.850Z,1013.46
2018-03-21T01:49:00.860Z,1013.45
2018-03-21T01:50:00.873Z,1013.49
2018-03-21T01:51:00.880Z,1013.49
2018-03-21T01:52:00.890Z,1013.52
2018-03-21T01:53:00.899Z,1013.52
2018-03-21T01:54:00.916Z,1013.52
2018-03-21T01:55:00.925Z,1013.5
2018-03-21T01:56:00.928Z,1013.51
2018-03-21T01:57:00.938Z,1013.54
2018-03-21T01:58:00.956Z,1013.51
2018-03-21T01:59:00.964Z,1013.52
2018-03-21T02:00:00.969Z,1013.55
2018-03-21T02:01:00.976Z,1013.53
2018-03-21T02:02:00.988Z,1013.53
2018-03-21T02:03:00.997Z,1013.54
2018-03-21T02:04:01.008Z,1013.51
2018-03-21T02:05:01.017Z,1013.54
2018-03-21T02:06:01.034Z,1013.5
2018-03-21T02:07:01.037Z,1013.49
2018-03-21T02:08:01.049Z,1013.52
2018-03-21T02:09:01.057Z,1013.55
2018-03-21T02:10:01.067Z,1013.55
2018-03-21T02:11:01.081Z,1013.54
2018-03-21T02:12:01.085Z,1013.52
2018-03-21T02:13:01.097Z,1013.55
2018-03-21T02:14:01.112Z,1013.55
2018-03-21T02:15:01.113Z,1013.54
2018-03-21T02:16:01.129Z,1013.54
2018-03-21T02:17:01.134Z,1013.55
2018-03-21T02:18:01.143Z,1013.57
2018-03-21T02:19:01.152Z,1013.59
2018-03-21T02:20:01.163Z,1013.61
2018-03-21T02:21:01.172Z,1013.62
2018-03-21T02:22:01.191Z,1013.62
2018-03-21T02:23:01.192Z,1013.66
2018-03-21T02:24:01.209Z,1013.64
2018-03-21T02:25:01.212Z,1013.65
2018-03-21T02:26:01.219Z,1013.68
2018-03-21T02:27:01.230Z,1013.71
2018-03-21T02:28:01.240Z,1013.69
2018-03-21T02:29:01.251Z,1013.7
2018-03-21T02:30:01.263Z,1013.73
2018-03-21T02:31:01.270Z,1013.7
2018-03-21T02:32:01.292Z,1013.74
2018-03-21T02:33:01.288Z,1013.73
2018-03-21T02:34:01.300Z,1013.81
2018-03-21T02:35:01.312Z,1013.81
2018-03-21T02:36:01.323Z,1013.79
2018-03-21T02:37:01.329Z,1013.81
2018-03-21T02:38:01.342Z,1013.82
2018-03-21T02:39:01.349Z,1013.81
2018-03-21T02:40:01.360Z,1013.82
2018-03-21T02:41:01.368Z,1013.77
2018-03-21T02:42:01.376Z,1013.82
2018-03-21T02:43:01.386Z,1013.81
2018-03-21T02:44:01.395Z,1013.84
2018-03-21T02:45:01.405Z,1013.81
2018-03-21T02:46:01.421Z,1013.79
2018-03-21T02:47:01.426Z,1013.74
2018-03-21T02:48:01.454Z,1013.82
2018-03-21T02:49:01.443Z,1013.82
2018-03-21T02:50:01.458Z,1013.79
2018-03-21T02:51:01.461Z,1013.78
2018-03-21T02:52:01.472Z,1013.79
2018-03-21T02:53:01.485Z,1013.81
2018-03-21T02:54:01.493Z,1013.77
2018-03-21T02:55:01.502Z,1013.8
2018-03-21T02:56:01.561Z,1013.79
2018-03-21T02:57:01.519Z,1013.76
2018-03-21T02:58:01.530Z,1013.75
2018-03-21T02:59:01.539Z,1013.77
2018-03-21T03:00:01.551Z,1013.75
2018-03-21T03:01:01.608Z,1013.8
2018-03-21T03:02:01.568Z,1013.74
2018-03-21T03:03:01.576Z,1013.76
2018-03-21T03:04:01.591Z,1013.76
2018-03-21T03:05:01.599Z,1013.76
2018-03-21T03:06:01.660Z,1013.76
2018-03-21T03:07:01.617Z,1013.73
2018-03-21T03:08:01.630Z,1013.74
2018-03-21T03:09:01.635Z,1013.76
2018-03-21T03:10:01.645Z,1013.76
2018-03-21T03:11:01.706Z,1013.76
2018-03-21T03:12:01.663Z,1013.79
2018-03-21T03:13:01.674Z,1013.77
2018-03-21T03:14:01.684Z,1013.76
2018-03-21T03:15:01.696Z,1013.75
2018-03-21T03:16:01.752Z,1013.8
2018-03-21T03:17:01.711Z,1013.77
2018-03-21T03:18:01.722Z,1013.8
2018-03-21T03:19:01.730Z,1013.76
2018-03-21T03:20:01.740Z,1013.72
2018-03-21T03:21:01.749Z,1013.74
2018-03-21T03:22:01.760Z,1013.7
2018-03-21T03:23:01.769Z,1013.78
2018-03-21T03:24:01.778Z,1013.7
2018-03-21T03:25:01.791Z,1013.7
2018-03-21T03:26:01.805Z,1013.72
2018-03-21T03:27:01.809Z,1013.77
2018-03-21T03:28:01.824Z,1013.7
2018-03-21T03:29:01.827Z,1013.74
2018-03-21T03:30:01.864Z,1013.74
2018-03-21T03:31:01.846Z,1013.71
2018-03-21T03:32:01.865Z,1013.72
2018-03-21T03:33:01.867Z,1013.72
2018-03-21T03:34:01.873Z,1013.73
2018-03-21T03:35:01.886Z,1013.67
2018-03-21T03:36:01.895Z,1013.71
2018-03-21T03:37:01.904Z,1013.73
2018-03-21T03:38:01.916Z,1013.72
2018-03-21T03:39:01.922Z,1013.73
2018-03-21T03:40:01.933Z,1013.74
2018-03-21T03:41:01.941Z,1013.73
2018-03-21T03:42:01.951Z,1013.74
2018-03-21T03:43:01.961Z,1013.75
2018-03-21T03:44:01.972Z,1013.75
2018-03-21T03:45:01.981Z,1013.74
2018-03-21T03:46:01.991Z,1013.78
2018-03-21T03:47:02.003Z,1013.76
2018-03-21T03:48:02.008Z,1013.74
2018-03-21T03:49:02.017Z,1013.78
2018-03-21T03:50:02.027Z,1013.81
2018-03-21T03:51:02.037Z,1013.78
2018-03-21T03:52:02.046Z,1013.77
2018-03-21T03:53:02.062Z,1013.77
2018-03-21T03:54:02.068Z,1013.76
2018-03-21T03:55:02.076Z,1013.74
2018-03-21T03:56:02.086Z,1013.79
2018-03-21T03:57:02.096Z,1013.75
2018-03-21T03:58:02.103Z,1013.76
2018-03-21T03:59:02.114Z,1013.78
2018-03-21T04:00:02.123Z,1013.81
2018-03-21T04:01:02.132Z,1013.79
2018-03-21T04:02:02.141Z,1013.78
2018-03-21T04:03:02.150Z,1013.8
2018-03-21T04:04:02.163Z,1013.82
2018-03-21T04:05:02.169Z,1013.79
2018-03-21T04:06:02.180Z,1013.81
2018-03-21T04:07:02.188Z,1013.81
2018-03-21T04:08:02.197Z,1013.79
2018-03-21T04:09:02.211Z,1013.81
2018-03-21T04:10:02.221Z,1013.82
2018-03-21T04:11:02.227Z,1013.8
2018-03-21T04:12:02.245Z,1013.78
2018-03-21T04:13:02.247Z,1013.77
2018-03-21T04:14:02.268Z,1013.78
2018-03-21T04:15:02.265Z,1013.82
2018-03-21T04:16:02.274Z,1013.83
2018-03-21T04:17:02.284Z,1013.81
2018-03-21T04:18:02.299Z,1013.83
2018-03-21T04:19:02.305Z,1013.83
2018-03-21T04:20:02.344Z,1013.86
2018-03-21T04:21:02.323Z,1013.83
2018-03-21T04:22:02.331Z,1013.84
2018-03-21T04:23:02.339Z,1013.81
2018-03-21T04:24:02.350Z,1013.83
2018-03-21T04:25:02.361Z,1013.82
2018-03-21T04:26:02.379Z,1013.83
2018-03-21T04:27:02.377Z,1013.85
2018-03-21T04:28:02.391Z,1013.85
2018-03-21T04:29:02.397Z,1013.86
2018-03-21T04:30:02.407Z,1013.87
2018-03-21T04:31:02.416Z,1013.84
2018-03-21T04:32:02.425Z,1013.89
2018-03-21T04:33:02.435Z,1013.85
2018-03-21T04:34:02.445Z,1013.86
2018-03-21T04:35:02.453Z,1013.82
2018-03-21T04:36:02.464Z,1013.84
2018-03-21T04:37:02.472Z,1013.84
2018-03-21T04:38:02.483Z,1013.89
2018-03-21T04:39:02.491Z,1013.84
2018-03-21T04:40:02.500Z,1013.85
2018-03-21T04:41:02.510Z,1013.86
2018-03-21T04:42:02.519Z,1013.84
2018-03-21T04:43:02.528Z,1013.82
2018-03-21T04:44:02.540Z,1013.83
2018-03-21T04:45:02.556Z,1013.89
2018-03-21T04:46:02.558Z,1013.89
2018-03-21T04:47:02.564Z,1013.91
2018-03-21T04:48:02.576Z,1013.91
2018-03-21T04:49:02.589Z,1013.92
2018-03-21T04:50:02.594Z,1013.97
2018-03-21T04:51:02.604Z,1013.97
2018-03-21T04:52:02.614Z,1013.97
2018-03-21T04:53:02.624Z,1013.96
2018-03-21T04:54:02.630Z,1013.97
2018-03-21T04:55:02.641Z,1013.97
2018-03-21T04:56:02.651Z,1014.01
2018-03-21T04:57:02.681Z,1014.03
2018-03-21T04:58:02.669Z,1014
2018-03-21T04:59:02.678Z,1014.01
2018-03-21T05:00:02.690Z,1013.99
2018-03-21T05:01:02.698Z,1014
2018-03-21T05:02:02.756Z,1013.99
2018-03-21T05:03:02.716Z,1014.02
2018-03-21T05:04:02.728Z,1014.03
2018-03-21T05:05:02.736Z,1014.05
2018-03-21T05:06:02.744Z,1014.08
2018-03-21T05:07:02.803Z,1014.07
2018-03-21T05:08:02.762Z,1014.05
2018-03-21T05:09:02.773Z,1014.08
2018-03-21T05:10:02.783Z,1014.07
2018-03-21T05:11:02.790Z,1014.09
2018-03-21T05:12:02.807Z,1014.11
2018-03-21T05:13:02.811Z,1014.11
2018-03-21T05:14:02.818Z,1014.1
2018-03-21T05:15:02.832Z,1014.14
2018-03-21T05:16:02.837Z,1014.16
2018-03-21T05:17:02.848Z,1014.18
2018-03-21T05:18:02.858Z,1014.19
2018-03-21T05:19:02.867Z,1014.17
2018-03-21T05:20:02.877Z,1014.17
2018-03-21T05:21:02.885Z,1014.2
2018-03-21T05:22:02.894Z,1014.2
2018-03-21T05:23:02.906Z,1014.24
2018-03-21T05:24:02.913Z,1014.22
2018-03-21T05:25:02.923Z,1014.29
2018-03-21T05:26:02.932Z,1014.28
2018-03-21T05:27:02.940Z,1014.29
2018-03-21T05:28:02.955Z,1014.27
2018-03-21T05:29:02.959Z,1014.27
2018-03-21T05:30:02.977Z,1014.29
2018-03-21T05:31:02.976Z,1014.3
2018-03-21T05:32:03.012Z,1014.3
2018-03-21T05:33:02.997Z,1014.29
2018-03-21T05:34:03.006Z,1014.27
2018-03-21T05:35:03.016Z,1014.3
2018-03-21T05:36:03.025Z,1014.3
2018-03-21T05:37:03.035Z,1014.32
2018-03-21T05:38:03.043Z,1014.29
2018-03-21T05:39:03.135Z,1014.33
2018-03-21T05:40:03.065Z,1014.34
2018-03-21T05:41:03.071Z,1014.36
2018-03-21T05:42:03.094Z,1014.31
2018-03-21T05:43:03.090Z,1014.34
2018-03-21T05:44:03.099Z,1014.35
2018-03-21T05:45:03.122Z,1014.33
2018-03-21T05:46:03.120Z,1014.34
2018-03-21T05:47:03.129Z,1014.37
2018-03-21T05:48:03.187Z,1014.41
2018-03-21T05:49:03.146Z,1014.41
2018-03-21T05:50:03.155Z,1014.42
2018-03-21T05:51:03.164Z,1014.41
2018-03-21T05:52:03.173Z,1014.42
2018-03-21T05:53:03.182Z,1014.4
2018-03-21T05:54:03.193Z,1014.4
2018-03-21T05:55:03.212Z,1014.4
2018-03-21T05:56:03.210Z,1014.39
2018-03-21T05:57:03.219Z,1014.39
2018-03-21T05:58:03.229Z,1014.4
2018-03-21T05:59:03.238Z,1014.39
2018-03-21T06:00:03.322Z,1014.42
2018-03-21T06:01:03.259Z,1014.42
2018-03-21T06:02:03.268Z,1014.45
2018-03-21T06:03:03.278Z,1014.46
2018-03-21T06:04:03.284Z,1014.45
2018-03-21T06:05:03.297Z,1014.5
2018-03-21T06:06:03.304Z,1014.5
2018-03-21T06:07:03.323Z,1014.53
2018-03-21T06:08:03.324Z,1014.51
2018-03-21T06:09:03.332Z,1014.52
2018-03-21T06:10:03.341Z,1014.54
2018-03-21T06:11:03.349Z,1014.56
2018-03-21T06:12:03.361Z,1014.56
2018-03-21T06:13:03.368Z,1014.56
2018-03-21T06:14:03.379Z,1014.56
2018-03-21T06:15:03.387Z,1014.56
2018-03-21T06:16:03.397Z,1014.57
2018-03-21T06:17:03.404Z,1014.6
2018-03-21T06:18:03.418Z,1014.59
2018-03-21T06:19:03.422Z,1014.56
2018-03-21T06:20:03.439Z,1014.59
2018-03-21T06:21:03.441Z,1014.61
2018-03-21T06:22:03.450Z,1014.62
2018-03-21T06:23:03.460Z,1014.66
2018-03-21T06:24:03.470Z,1014.66
2018-03-21T06:25:03.478Z,1014.69
2018-03-21T06:26:03.488Z,1014.72
2018-03-21T06:27:03.498Z,1014.7
2018-03-21T06:28:03.513Z,1014.75
2018-03-21T06:29:03.516Z,1014.77
2018-03-21T06:30:03.524Z,1014.75
2018-03-21T06:31:03.537Z,1014.8
2018-03-21T06:32:03.544Z,1014.82
2018-03-21T06:33:03.553Z,1014.84
2018-03-21T06:34:03.562Z,1014.82
2018-03-21T06:35:03.571Z,1014.85
2018-03-21T06:36:03.581Z,1014.88
2018-03-21T06:37:03.590Z,1014.9
2018-03-21T06:38:03.629Z,1014.9
2018-03-21T06:39:03.608Z,1014.9
2018-03-21T06:40:03.617Z,1014.91
2018-03-21T06:41:03.629Z,1014.92
2018-03-21T06:42:03.636Z,1014.89
2018-03-21T06:43:03.646Z,1014.88
2018-03-21T06:44:03.657Z,1014.89
2018-03-21T06:45:03.665Z,1014.92
2018-03-21T06:46:03.673Z,1014.91
2018-03-21T06:47:03.683Z,1014.92
2018-03-21T06:48:03.742Z,1014.93
2018-03-21T06:49:03.701Z,1014.95
2018-03-21T06:50:03.714Z,1014.96
2018-03-21T06:51:03.721Z,1014.97
2018-03-21T06:52:03.730Z,1014.99
2018-03-21T06:53:03.791Z,1014.98
2018-03-21T06:54:03.748Z,1014.99
2018-03-21T06:55:03.756Z,1014.98
2018-03-21T06:56:03.767Z,1014.94
2018-03-21T06:57:03.776Z,1014.98
2018-03-21T06:58:03.837Z,1014.97
2018-03-21T06:59:03.794Z,1014.97
2018-03-21T07:00:03.804Z,1014.98
2018-03-21T07:01:03.815Z,1015
2018-03-21T07:02:03.822Z,1014.99
2018-03-21T07:03:03.886Z,1014.98
2018-03-21T07:04:03.843Z,1014.98
2018-03-21T07:05:03.852Z,1014.99
2018-03-21T07:06:03.860Z,1014.99
2018-03-21T07:07:03.869Z,1015.05
2018-03-21T07:08:03.930Z,1015.05
2018-03-21T07:09:03.894Z,1015.03
2018-03-21T07:10:03.897Z,1015.04
2018-03-21T07:11:03.907Z,1015.07
2018-03-21T07:12:03.917Z,1015.07
2018-03-21T07:13:03.924Z,1015.08
2018-03-21T07:14:03.934Z,1015.14
2018-03-21T07:15:03.946Z,1015.13
2018-03-21T07:16:03.956Z,1015.14
2018-03-21T07:17:03.963Z,1015.15
2018-03-21T07:18:03.972Z,1015.19
2018-03-21T07:19:03.981Z,1015.16
2018-03-21T07:20:03.997Z,1015.19
2018-03-21T07:21:04.000Z,1015.23
2018-03-21T07:22:04.010Z,1015.18
2018-03-21T07:23:04.019Z,1015.21
2018-03-21T07:24:04.029Z,1015.2
2018-03-21T07:25:04.038Z,1015.17
2018-03-21T07:26:04.048Z,1015.19
2018-03-21T07:27:04.058Z,1015.2
2018-03-21T07:28:04.066Z,1015.19
2018-03-21T07:29:04.076Z,1015.19
2018-03-21T07:30:04.084Z,1015.19
2018-03-21T07:31:04.134Z,1015.2
2018-03-21T07:32:04.105Z,1015.19
2018-03-21T07:33:04.114Z,1015.16
2018-03-21T07:34:04.125Z,1015.2
2018-03-21T07:35:04.133Z,1015.2
2018-03-21T07:36:04.147Z,1015.24
2018-03-21T07:37:04.151Z,1015.26
2018-03-21T07:38:04.162Z,1015.25
2018-03-21T07:39:04.232Z,1015.27
2018-03-21T07:40:04.180Z,1015.24
2018-03-21T07:41:04.190Z,1015.28
2018-03-21T07:42:04.198Z,1015.28
2018-03-21T07:43:04.207Z,1015.28
2018-03-21T07:44:04.218Z,1015.3
2018-03-21T07:45:04.238Z,1015.29
2018-03-21T07:46:04.237Z,1015.33
2018-03-21T07:47:04.332Z,1015.31
2018-03-21T07:48:04.282Z,1015.33
2018-03-21T07:49:04.268Z,1015.37
2018-03-21T07:50:04.275Z,1015.35
2018-03-21T07:51:04.286Z,1015.37
2018-03-21T07:52:04.301Z,1015.36
2018-03-21T07:53:04.304Z,1015.37
2018-03-21T07:54:04.316Z,1015.36
2018-03-21T07:55:04.323Z,1015.39
2018-03-21T07:56:04.334Z,1015.37
2018-03-21T07:57:04.342Z,1015.36
2018-03-21T07:58:04.354Z,1015.35
2018-03-21T07:59:04.362Z,1015.37
2018-03-21T08:00:04.372Z,1015.39
2018-03-21T08:01:04.380Z,1015.38
2018-03-21T08:02:04.393Z,1015.39
2018-03-21T08:03:04.407Z,1015.39
2018-03-21T08:04:04.414Z,1015.42
2018-03-21T08:05:04.420Z,1015.45
2018-03-21T08:06:04.433Z,1015.49
2018-03-21T08:07:04.519Z,1015.49
2018-03-21T08:08:04.448Z,1015.49
2018-03-21T08:09:04.459Z,1015.51
2018-03-21T08:10:04.473Z,1015.5
2018-03-21T08:11:04.478Z,1015.48
2018-03-21T08:12:04.490Z,1015.52
2018-03-21T08:13:04.499Z,1015.51
2018-03-21T08:14:04.509Z,1015.55
2018-03-21T08:15:04.522Z,1015.56
2018-03-21T08:16:04.527Z,1015.56
2018-03-21T08:17:04.538Z,1015.59
2018-03-21T08:18:04.548Z,1015.57
2018-03-21T08:19:04.558Z,1015.58
2018-03-21T08:20:04.570Z,1015.6
2018-03-21T08:21:04.578Z,1015.63
2018-03-21T08:22:04.587Z,1015.62
2018-03-21T08:23:04.598Z,1015.63
2018-03-21T08:24:04.609Z,1015.67
2018-03-21T08:25:04.653Z,1015.67
2018-03-21T08:26:04.627Z,1015.62
2018-03-21T08:27:04.643Z,1015.68
2018-03-21T08:28:04.652Z,1015.74
2018-03-21T08:29:04.698Z,1015.66
2018-03-21T08:30:04.666Z,1015.66
2018-03-21T08:31:04.678Z,1015.69
2018-03-21T08:32:04.731Z,1015.67
2018-03-21T08:33:04.697Z,1015.67
2018-03-21T08:34:04.756Z,1015.64
2018-03-21T08:35:04.724Z,1015.63
2018-03-21T08:36:04.728Z,1015.62
2018-03-21T08:37:04.737Z,1015.61
2018-03-21T08:38:04.747Z,1015.62
2018-03-21T08:39:04.757Z,1015.61
2018-03-21T08:40:04.767Z,1015.61
2018-03-21T08:41:04.778Z,1015.62
2018-03-21T08:42:04.786Z,1015.66
2018-03-21T08:43:04.803Z,1015.64
2018-03-21T08:44:04.807Z,1015.61
2018-03-21T08:45:04.817Z,1015.63
2018-03-21T08:46:04.828Z,1015.66
2018-03-21T08:47:04.839Z,1015.69
2018-03-21T08:48:04.848Z,1015.68
2018-03-21T08:49:04.862Z,1015.68
2018-03-21T08:50:04.867Z,1015.71
2018-03-21T08:51:04.881Z,1015.73
2018-03-21T08:52:04.889Z,1015.75
2018-03-21T08:53:04.907Z,1015.73
2018-03-21T08:54:04.918Z,1015.76
2018-03-21T08:55:04.919Z,1015.72
2018-03-21T08:56:04.928Z,1015.75
2018-03-21T08:57:04.944Z,1015.77
2018-03-21T08:58:04.951Z,1015.75
2018-03-21T08:59:04.960Z,1015.81
2018-03-21T09:00:04.970Z,1015.79
2018-03-21T09:01:04.981Z,1015.81
2018-03-21T09:02:04.992Z,1015.75
2018-03-21T09:03:05.000Z,1015.78
2018-03-21T09:04:05.016Z,1015.76
2018-03-21T09:05:05.022Z,1015.79
2018-03-21T09:06:05.031Z,1015.75
2018-03-21T09:07:05.045Z,1015.77
2018-03-21T09:08:05.053Z,1015.76
2018-03-21T09:09:05.063Z,1015.73
2018-03-21T09:10:05.073Z,1015.75
2018-03-21T09:11:05.085Z,1015.78
2018-03-21T09:12:05.093Z,1015.77
2018-03-21T09:13:05.163Z,1015.8
2018-03-21T09:14:05.115Z,1015.78
2018-03-21T09:15:05.126Z,1015.79
2018-03-21T09:16:05.136Z,1015.81
2018-03-21T09:17:05.146Z,1015.81
2018-03-21T09:18:05.156Z,1015.8
2018-03-21T09:19:05.171Z,1015.82
2018-03-21T09:20:05.179Z,1015.83
2018-03-21T09:21:05.188Z,1015.84
2018-03-21T09:22:05.214Z,1015.85
2018-03-21T09:23:05.210Z,1015.83
2018-03-21T09:24:05.218Z,1015.81
2018-03-21T09:25:05.231Z,1015.84
2018-03-21T09:26:05.288Z,1015.79
2018-03-21T09:27:05.254Z,1015.8
2018-03-21T09:28:05.260Z,1015.8
2018-03-21T09:29:05.270Z,1015.79
2018-03-21T09:30:05.283Z,1015.76
2018-03-21T09:31:05.292Z,1015.72
2018-03-21T09:32:05.303Z,1015.73
2018-03-21T09:33:05.312Z,1015.73
2018-03-21T09:34:05.325Z,1015.73
2018-03-21T09:35:05.335Z,1015.74
2018-03-21T09:36:05.346Z,1015.72
2018-03-21T09:37:05.355Z,1015.74
2018-03-21T09:38:05.368Z,1015.72
2018-03-21T09:39:05.455Z,1015.7
2018-03-21T09:40:05.387Z,1015.73
2018-03-21T09:41:05.399Z,1015.74
2018-03-21T09:42:05.410Z,1015.72
2018-03-21T09:43:05.422Z,1015.74
2018-03-21T09:44:05.431Z,1015.76
2018-03-21T09:45:05.440Z,1015.69
2018-03-21T09:46:05.457Z,1015.73
2018-03-21T09:47:05.463Z,1015.71
2018-03-21T09:48:05.473Z,1015.75
2018-03-21T09:49:05.487Z,1015.75
2018-03-21T09:50:05.496Z,1015.76
2018-03-21T09:51:05.504Z,1015.71
2018-03-21T09:52:05.518Z,1015.69
2018-03-21T09:53:05.527Z,1015.68
2018-03-21T09:54:05.541Z,1015.71
2018-03-21T09:55:05.550Z,1015.71
2018-03-21T09:56:05.565Z,1015.73
2018-03-21T09:57:05.571Z,1015.74
2018-03-21T09:58:05.581Z,1015.7
2018-03-21T09:59:05.787Z,1015.72
2018-03-21T10:00:05.605Z,1015.7
2018-03-21T10:01:05.667Z,1015.75
2018-03-21T10:02:05.695Z,1015.74
2018-03-21T10:03:05.659Z,1015.73
2018-03-21T10:04:05.648Z,1015.75
2018-03-21T10:05:05.712Z,1015.72
2018-03-21T10:06:05.715Z,1015.73
2018-03-21T10:07:05.686Z,1015.76
2018-03-21T10:08:05.708Z,1015.76
2018-03-21T10:09:05.708Z,1015.73
2018-03-21T10:10:05.715Z,1015.71
2018-03-21T10:11:05.744Z,1015.75
2018-03-21T10:12:05.735Z,1015.7
2018-03-21T10:13:05.748Z,1015.74
2018-03-21T10:14:05.782Z,1015.74
2018-03-21T10:15:05.770Z,1015.68
2018-03-21T10:16:05.795Z,1015.7
2018-03-21T10:17:05.921Z,1015.71
2018-03-21T10:18:05.804Z,1015.66
2018-03-21T10:19:05.823Z,1015.64
2018-03-21T10:20:05.826Z,1015.67
2018-03-21T10:21:05.836Z,1015.66
2018-03-21T10:22:05.849Z,1015.66
2018-03-21T10:23:05.863Z,1015.67
2018-03-21T10:24:05.872Z,1015.66
2018-03-21T10:25:05.882Z,1015.72
2018-03-21T10:26:05.892Z,1015.7
2018-03-21T10:27:05.904Z,1015.76
2018-03-21T10:28:05.916Z,1015.74
2018-03-21T10:29:05.928Z,1015.75
2018-03-21T10:30:05.945Z,1015.76
2018-03-21T10:31:05.949Z,1015.75
2018-03-21T10:32:05.960Z,1015.73
2018-03-21T10:33:05.975Z,1015.74
2018-03-21T10:34:05.982Z,1015.75
2018-03-21T10:35:05.994Z,1015.75
2018-03-21T10:36:06.009Z,1015.76
2018-03-21T10:37:06.021Z,1015.79
2018-03-21T10:38:06.029Z,1015.8
2018-03-21T10:39:06.040Z,1015.75
2018-03-21T10:40:06.053Z,1015.75
2018-03-21T10:41:06.062Z,1015.71
2018-03-21T10:42:06.074Z,1015.73
2018-03-21T10:43:06.090Z,1015.7
2018-03-21T10:44:06.097Z,1015.73
2018-03-21T10:45:06.132Z,1015.7
2018-03-21T10:46:06.120Z,1015.67
2018-03-21T10:47:06.132Z,1015.65
2018-03-21T10:48:06.145Z,1015.64
2018-03-21T10:49:06.157Z,1015.57
2018-03-21T10:50:06.166Z,1015.63
2018-03-21T10:51:06.177Z,1015.56
2018-03-21T10:52:06.194Z,1015.54
2018-03-21T10:53:06.200Z,1015.53
2018-03-21T10:54:06.219Z,1015.55
2018-03-21T10:55:06.225Z,1015.53
2018-03-21T10:56:06.235Z,1015.53
2018-03-21T10:57:06.246Z,1015.54
2018-03-21T10:58:06.258Z,1015.54
2018-03-21T10:59:06.311Z,1015.55
2018-03-21T11:00:06.280Z,1015.55
2018-03-21T11:01:06.344Z,1015.54
2018-03-21T11:02:06.417Z,1015.57
2018-03-21T11:03:06.318Z,1015.58
2018-03-21T11:04:06.327Z,1015.52
2018-03-21T11:05:06.345Z,1015.52
2018-03-21T11:06:06.403Z,1015.5
2018-03-21T11:07:06.364Z,1015.46
2018-03-21T11:08:06.383Z,1015.49
2018-03-21T11:09:06.401Z,1015.5
2018-03-21T11:10:06.399Z,1015.47
2018-03-21T11:11:06.410Z,1015.53
2018-03-21T11:12:06.423Z,1015.53
2018-03-21T11:13:06.435Z,1015.5
2018-03-21T11:14:06.484Z,1015.55
2018-03-21T11:15:06.457Z,1015.52
2018-03-21T11:16:06.470Z,1015.52
2018-03-21T11:17:06.482Z,1015.52
2018-03-21T11:18:06.493Z,1015.53
2018-03-21T11:19:06.509Z,1015.51
2018-03-21T11:20:06.524Z,1015.54
2018-03-21T11:21:06.530Z,1015.51
2018-03-21T11:22:06.542Z,1015.5
2018-03-21T11:23:06.555Z,1015.49
2018-03-21T11:24:06.569Z,1015.52
2018-03-21T11:25:06.577Z,1015.48
2018-03-21T11:26:06.594Z,1015.51
2018-03-21T11:27:06.605Z,1015.51
2018-03-21T11:28:06.615Z,1015.48
2018-03-21T11:29:06.632Z,1015.5
2018-03-21T11:30:06.638Z,1015.47
2018-03-21T11:31:06.650Z,1015.45
2018-03-21T11:32:06.662Z,1015.43
2018-03-21T11:33:06.677Z,1015.45
2018-03-21T11:34:06.781Z,1015.45
2018-03-21T11:35:06.699Z,1015.47
2018-03-21T11:36:06.711Z,1015.5
2018-03-21T11:37:06.724Z,1015.47
2018-03-21T11:38:06.742Z,1015.48
2018-03-21T11:39:06.750Z,1015.45
2018-03-21T11:40:06.760Z,1015.45
2018-03-21T11:41:06.779Z,1015.46
2018-03-21T11:42:06.820Z,1015.42
2018-03-21T11:43:06.796Z,1015.44
2018-03-21T11:44:06.808Z,1015.4
2018-03-21T11:45:06.824Z,1015.41
2018-03-21T11:46:06.834Z,1015.43
2018-03-21T11:47:06.848Z,1015.4
2018-03-21T11:48:06.859Z,1015.44
2018-03-21T11:49:06.871Z,1015.42
2018-03-21T11:50:06.940Z,1015.41
2018-03-21T11:51:06.907Z,1015.4
2018-03-21T11:52:06.909Z,1015.41
2018-03-21T11:53:06.920Z,1015.44
2018-03-21T11:54:06.932Z,1015.37
2018-03-21T11:55:06.956Z,1015.34
2018-03-21T11:56:06.956Z,1015.37
2018-03-21T11:57:06.968Z,1015.36
2018-03-21T11:58:06.980Z,1015.33
2018-03-21T11:59:06.999Z,1015.35
2018-03-21T12:00:07.005Z,1015.33
2018-03-21T12:01:07.017Z,1015.31
2018-03-21T12:02:07.029Z,1015.27
2018-03-21T12:03:07.044Z,1015.26
2018-03-21T12:04:07.054Z,1015.26
2018-03-21T12:05:07.070Z,1015.33
2018-03-21T12:06:07.079Z,1015.23
2018-03-21T12:07:07.095Z,1015.22
2018-03-21T12:08:07.110Z,1015.21
2018-03-21T12:09:07.116Z,1015.19